Hovedside
METAR-TAF:

METAR-TAF

Lufthavner :

Vlissingen, Nederland

breddegrad: 51-27N, lengdegrad: 3-36E, høyde over havet: 10 m

Gjeldene værobservasjon

Denne rapporten ble laget for 41 minutter siden, klokken 13:55 UTC
Vind 2 kt fra skiftende retning
Temperatur 27°C
Luftfuktighet 48%
Trykk 1021 hPa
Sikt 10 km eller mer

METAR: EHFS 181355Z AUTO VRB02KT 9999 NSC 27/15 Q1021

Tid: 16:36 (14:36 UTC)


TAF: fraværende

Værobservasjoner og værvarsel for over 4000 flyplasser (METAR- og TAF-rapporter).

Tilgjengelige stasjoner er representert av de røde og gule prikkene på kartet.

Hold musepekeren over prikken for å se navnet på stasjonen.

Klikk så for å se værobservasjoner og -varsler.

For å forandre kartet kan du klikke på den grønne knappen med svart kryss for å zoome inn, på den grønne knappen med strek for å zoome ut, eller på de grønne pilene for å se tilstøtende kart.


METAR-TAF: